createdAt,value
2015-09-23T00:00:43.578Z,87.3
2015-09-23T00:01:43.503Z,87.3
2015-09-23T00:02:43.459Z,87.1
2015-09-23T00:03:43.414Z,87.2
2015-09-23T00:04:43.370Z,87.3
2015-09-23T00:05:43.311Z,87.1
2015-09-23T00:06:43.267Z,87.1
2015-09-23T00:07:43.208Z,87.3
2015-09-23T00:08:43.163Z,87.6
2015-09-23T00:09:43.119Z,87.8
2015-09-23T00:10:43.059Z,87.4
2015-09-23T00:11:42.999Z,88
2015-09-23T00:12:42.971Z,88
2015-09-23T00:13:42.911Z,88.2
2015-09-23T00:14:42.866Z,88.2
2015-09-23T00:15:42.822Z,87.7
2015-09-23T00:16:42.747Z,87.8
2015-09-23T00:17:42.938Z,87.5
2015-09-23T00:18:42.658Z,87.7
2015-09-23T00:19:42.599Z,87.3
2015-09-23T00:20:42.555Z,87.7
2015-09-23T00:21:42.495Z,86.9
2015-09-23T00:22:42.451Z,87.2
2015-09-23T00:23:42.407Z,87.9
2015-09-23T00:24:42.363Z,87.5
2015-09-23T00:25:42.303Z,87.3
2015-09-23T00:26:42.260Z,88
2015-09-23T00:27:42.215Z,88.3
2015-09-23T00:28:42.154Z,88.8
2015-09-23T00:29:42.110Z,88.1
2015-09-23T00:30:42.051Z,88
2015-09-23T00:31:42.007Z,87.8
2015-09-23T00:32:41.947Z,87.6
2015-09-23T00:33:41.903Z,87.5
2015-09-23T00:34:41.843Z,87.3
2015-09-23T00:35:41.798Z,87.3
2015-09-23T00:36:41.755Z,87.3
2015-09-23T00:37:41.710Z,87.6
2015-09-23T00:38:41.651Z,87.7
2015-09-23T00:39:41.591Z,87.6
2015-09-23T00:40:41.548Z,87.5
2015-09-23T00:41:41.487Z,87.4
2015-09-23T00:42:41.458Z,87.3
2015-09-23T00:43:41.384Z,87.5
2015-09-23T00:44:41.354Z,87.8
2015-09-23T00:45:41.514Z,88.2
2015-09-23T00:46:41.235Z,88
2015-09-23T00:47:41.191Z,87.9
2015-09-23T00:48:41.147Z,87.8
2015-09-23T00:49:41.086Z,87.5
2015-09-23T00:50:41.043Z,87.3
2015-09-23T00:51:40.983Z,87.3
2015-09-23T00:52:40.939Z,87.4
2015-09-23T00:53:40.895Z,87.4
2015-09-23T00:54:40.835Z,87.4
2015-09-23T00:55:40.791Z,87.4
2015-09-23T00:56:40.731Z,87.3
2015-09-23T00:57:40.687Z,87.3
2015-09-23T00:58:40.627Z,87.5
2015-09-23T00:59:40.583Z,87.4
2015-09-23T01:00:40.523Z,87.4
2015-09-23T01:01:40.479Z,87.4
2015-09-23T01:02:40.435Z,87.3
2015-09-23T01:03:39.640Z,87.2
2015-09-23T01:04:40.331Z,87.2
2015-09-23T01:05:39.536Z,87.2
2015-09-23T01:06:40.227Z,87.1
2015-09-23T01:07:40.183Z,87.2
2015-09-23T01:08:40.357Z,87.1
2015-09-23T01:09:40.079Z,87.1
2015-09-23T01:10:40.019Z,87.1
2015-09-23T01:11:39.991Z,87.1
2015-09-23T01:12:39.913Z,87
2015-09-23T01:13:39.884Z,86.9
2015-09-23T01:14:39.824Z,86.8
2015-09-23T01:15:39.765Z,87.1
2015-09-23T01:16:39.721Z,87.1
2015-09-23T01:17:39.660Z,87.1
2015-09-23T01:18:39.616Z,87.1
2015-09-23T01:19:39.572Z,87.1
2015-09-23T01:20:39.528Z,87.3
2015-09-23T01:21:39.468Z,87.1
2015-09-23T01:22:39.424Z,87
2015-09-23T01:23:39.364Z,87
2015-09-23T01:24:39.320Z,86.9
2015-09-23T01:25:39.495Z,86.8
2015-09-23T01:26:39.215Z,86.5
2015-09-23T01:27:39.187Z,86.5
2015-09-23T01:28:39.112Z,86.3
2015-09-23T01:29:39.067Z,86.5
2015-09-23T01:30:39.008Z,86.5
2015-09-23T01:31:38.979Z,86.7
2015-09-23T01:32:38.936Z,86.8
2015-09-23T01:33:38.126Z,86.8
2015-09-23T01:36:28.930Z,86.6
2015-09-23T01:37:16.121Z,86.5
2015-09-23T01:38:16.077Z,86.6
2015-09-23T01:39:16.017Z,86.5
2015-09-23T01:40:15.973Z,86.6
2015-09-23T01:41:16.163Z,86.3
2015-09-23T01:42:15.884Z,86.6
2015-09-23T01:43:15.825Z,86.5
2015-09-23T01:44:15.764Z,86.4
2015-09-23T01:45:15.722Z,86.5
2015-09-23T01:46:15.678Z,86.2
2015-09-23T01:47:15.633Z,86
2015-09-23T01:48:15.558Z,85.9
2015-09-23T01:49:15.513Z,85.7
2015-09-23T01:50:15.469Z,86.2
2015-09-23T01:51:15.269Z,86.5
2015-09-23T01:52:15.380Z,86.9
2015-09-23T01:53:15.321Z,86.8
2015-09-23T01:54:15.277Z,87.1
2015-09-23T01:55:15.233Z,86.9
2015-09-23T01:56:15.173Z,86.7
2015-09-23T01:57:15.113Z,86.6
2015-09-23T01:58:15.069Z,86.5
2015-09-23T01:59:15.022Z,86.3
2015-09-23T02:00:14.977Z,86.3
2015-09-23T02:01:14.918Z,86.5
2015-09-23T02:02:14.874Z,86.4
2015-09-23T02:03:14.814Z,86.7
2015-09-23T02:04:15.005Z,86.7
2015-09-23T02:05:14.726Z,86.6
2015-09-23T02:06:14.666Z,86.7
2015-09-23T02:07:14.621Z,86.2
2015-09-23T02:08:14.562Z,86.1
2015-09-23T02:09:14.534Z,86.1
2015-09-23T02:10:14.458Z,86
2015-09-23T02:11:14.414Z,86
2015-09-23T02:12:14.370Z,85.9
2015-09-23T02:13:14.326Z,85.8
2015-09-23T02:14:14.265Z,85.8
2015-09-23T02:15:14.221Z,85.7
2015-09-23T02:16:14.163Z,85.8
2015-09-23T02:17:14.118Z,85.7
2015-09-23T02:18:14.060Z,85.7
2015-09-23T02:19:14.015Z,85.8
2015-09-23T02:20:13.971Z,86.3
2015-09-23T02:21:13.911Z,86.5
2015-09-23T02:22:13.866Z,86.9
2015-09-23T02:23:13.823Z,86.9
2015-09-23T02:24:13.763Z,86.9
2015-09-23T02:25:13.719Z,86.8
2015-09-23T02:26:13.659Z,86.6
2015-09-23T02:27:13.630Z,86.3
2015-09-23T02:28:12.821Z,86.3
2015-09-23T02:29:13.526Z,86.2
2015-09-23T02:30:13.483Z,86.3
2015-09-23T02:31:13.423Z,86.1
2015-09-23T02:32:13.363Z,86.2
2015-09-23T02:33:13.318Z,86.4
2015-09-23T02:34:13.274Z,86.5
2015-09-23T02:35:13.215Z,86.3
2015-09-23T02:36:13.404Z,86.2
2015-09-23T02:37:13.111Z,86.1
2015-09-23T02:38:13.067Z,86
2015-09-23T02:39:13.007Z,86
2015-09-23T02:40:12.962Z,86.2
2015-09-23T02:41:12.919Z,86.1
2015-09-23T02:42:12.890Z,86.4
2015-09-23T02:43:12.815Z,86.5
2015-09-23T02:44:12.770Z,86.4
2015-09-23T02:45:12.711Z,86.2
2015-09-23T02:46:12.667Z,85.9
2015-09-23T02:47:12.622Z,85.9
2015-09-23T02:48:12.797Z,85.9
2015-09-23T02:49:12.519Z,85.9
2015-09-23T02:50:12.490Z,85.8
2015-09-23T02:51:12.414Z,85.8
2015-09-23T02:52:12.387Z,85.9
2015-09-23T02:53:12.311Z,85.8
2015-09-23T02:54:12.267Z,85.8
2015-09-23T02:55:12.207Z,86.1
2015-09-23T02:56:12.178Z,86.1
2015-09-23T02:57:12.103Z,86.3
2015-09-23T02:58:12.074Z,86.2
2015-09-23T02:59:12.014Z,86.1
2015-09-23T03:00:11.955Z,85.9
2015-09-23T03:01:11.927Z,86.1
2015-09-23T03:02:11.851Z,86.1
2015-09-23T03:03:11.807Z,85.8
2015-09-23T03:04:11.747Z,86
2015-09-23T03:05:11.718Z,86
2015-09-23T03:06:11.658Z,86
2015-09-23T03:07:11.614Z,86.1
2015-09-23T03:08:11.555Z,86.2
2015-09-23T03:09:11.510Z,85.9
2015-09-23T03:10:10.713Z,85.9
2015-09-23T03:11:11.404Z,85.7
2015-09-23T03:12:11.344Z,85.6
2015-09-23T03:13:11.299Z,85.5
2015-09-23T03:14:11.255Z,85.4
2015-09-23T03:15:11.196Z,85.4
2015-09-23T03:16:11.152Z,85.5
2015-09-23T03:17:11.108Z,85.4
2015-09-23T03:18:11.048Z,85.4
2015-09-23T03:19:11.004Z,85.4
2015-09-23T03:20:10.960Z,85.2
2015-09-23T03:21:10.899Z,85.4
2015-09-23T03:22:10.856Z,85.4
2015-09-23T03:23:10.812Z,85.5
2015-09-23T03:24:10.767Z,85.3
2015-09-23T03:25:09.957Z,85.3
2015-09-23T03:26:10.663Z,85.3
2015-09-23T03:27:10.603Z,85.3
2015-09-23T03:28:10.559Z,85.3
2015-09-23T03:29:10.500Z,85.3
2015-09-23T03:30:10.456Z,85.4
2015-09-23T03:31:10.412Z,85.4
2015-09-23T03:32:09.617Z,85.5
2015-09-23T03:33:10.307Z,85.3
2015-09-23T03:34:10.264Z,85.5
2015-09-23T03:35:10.203Z,86.1
2015-09-23T03:36:10.394Z,86.2
2015-09-23T03:37:10.115Z,86.7
2015-09-23T03:38:10.180Z,87.1
2015-09-23T03:39:10.245Z,87.2
2015-09-23T03:40:09.983Z,87.4
2015-09-23T03:41:09.908Z,87.4
2015-09-23T03:42:09.864Z,87.4
2015-09-23T03:43:09.803Z,87.5
2015-09-23T03:44:09.759Z,87.6
2015-09-23T03:45:24.231Z,87
2015-09-23T03:46:10.014Z,86.9
2015-09-23T03:47:09.611Z,86.4
2015-09-23T03:48:09.567Z,86.3
2015-09-23T03:49:10.195Z,86.5
2015-09-23T03:50:09.494Z,86.7
2015-09-23T03:51:09.419Z,87
2015-09-23T03:52:09.359Z,86.9
2015-09-23T03:53:09.486Z,87.1
2015-09-23T03:54:09.505Z,87.5
2015-09-23T03:55:09.461Z,87.5
2015-09-23T03:56:09.339Z,87.5
2015-09-23T03:57:09.123Z,87.5
2015-09-23T03:58:09.344Z,87.2
2015-09-23T03:59:09.019Z,87.3
2015-09-23T04:00:09.303Z,87.3
2015-09-23T04:01:08.923Z,87.5
2015-09-23T04:02:09.292Z,87.4
2015-09-23T04:03:08.801Z,87.6
2015-09-23T04:04:08.732Z,87.6
2015-09-23T04:05:08.680Z,87.7
2015-09-23T04:06:07.804Z,87.5
2015-09-23T04:07:08.803Z,87.4
2015-09-23T04:08:08.521Z,87.4
2015-09-23T04:09:08.459Z,87.3
2015-09-23T04:10:08.411Z,86.9
2015-09-23T04:11:08.366Z,86.4
2015-09-23T04:12:08.306Z,86.3
2015-09-23T04:13:08.494Z,86.2
2015-09-23T04:14:08.199Z,86.2
2015-09-23T04:15:08.153Z,85.4
2015-09-23T04:16:08.093Z,85.4
2015-09-23T04:17:08.049Z,84.9
2015-09-23T04:18:08.238Z,83.9
2015-09-23T04:19:07.957Z,84
2015-09-23T04:20:07.898Z,84.4
2015-09-23T04:21:07.868Z,84.4
2015-09-23T04:22:07.792Z,84.2
2015-09-23T04:23:07.748Z,82.5
2015-09-23T04:24:07.703Z,83.4
2015-09-23T04:25:07.659Z,83.2
2015-09-23T04:26:07.599Z,82.8
2015-09-23T04:27:07.554Z,83.5
2015-09-23T04:28:07.495Z,83.5
2015-09-23T04:29:07.450Z,82.2
2015-09-23T04:30:07.390Z,83
2015-09-23T04:31:07.347Z,83.1
2015-09-23T04:32:07.287Z,83.3
2015-09-23T04:33:07.243Z,83.8
2015-09-23T04:34:07.198Z,82.2
2015-09-23T04:35:07.139Z,82.7
2015-09-23T04:36:07.095Z,82.7
2015-09-23T04:37:07.269Z,82.2
2015-09-23T04:38:06.991Z,83.1
2015-09-23T04:39:06.947Z,82.6
2015-09-23T04:40:06.887Z,82.9
2015-09-23T04:41:06.843Z,82.6
2015-09-23T04:42:06.798Z,82.6
2015-09-23T04:43:06.739Z,81.8
2015-09-23T04:44:06.929Z,82.8
2015-09-23T04:45:06.635Z,82.7
2015-09-23T04:46:06.591Z,82
2015-09-23T04:47:06.547Z,82.2
2015-09-23T04:48:06.487Z,81.6
2015-09-23T04:49:06.443Z,81.4
2015-09-23T04:50:06.414Z,81.2
2015-09-23T04:51:06.339Z,81.6
2015-09-23T04:52:06.280Z,81.8
2015-09-23T04:53:06.235Z,81.2
2015-09-23T04:54:06.191Z,81
2015-09-23T04:55:06.147Z,80.7
2015-09-23T04:56:06.086Z,81.4
2015-09-23T04:57:06.028Z,81.1
2015-09-23T04:58:05.999Z,81.2
2015-09-23T04:59:05.939Z,81.6
2015-09-23T05:00:05.895Z,81.8
2015-09-23T05:01:05.835Z,81.1
2015-09-23T05:02:05.790Z,80.6
2015-09-23T05:03:05.746Z,81
2015-09-23T05:04:05.702Z,81.8
2015-09-23T05:05:05.627Z,81.1
2015-09-23T05:06:05.583Z,81.1
2015-09-23T05:07:05.538Z,80.7
2015-09-23T05:08:05.479Z,80.7
2015-09-23T05:09:05.435Z,81.4
2015-09-23T05:10:05.391Z,81.2
2015-09-23T05:11:05.331Z,80.8
2015-09-23T05:12:05.287Z,81.1
2015-09-23T05:13:05.258Z,81
2015-09-23T05:14:05.182Z,81
2015-09-23T05:15:05.144Z,80.7
2015-09-23T05:16:05.084Z,81.3
2015-09-23T05:17:05.040Z,80.1
2015-09-23T05:18:04.979Z,81.1
2015-09-23T05:19:04.936Z,81.6
2015-09-23T05:20:05.110Z,80.7
2015-09-23T05:21:04.831Z,81.1
2015-09-23T05:22:04.772Z,80.6
2015-09-23T05:23:04.728Z,81.6
2015-09-23T05:24:04.668Z,81.8
2015-09-23T05:25:04.623Z,80.9
2015-09-23T05:26:04.580Z,80.8
2015-09-23T05:27:04.533Z,81.1
2015-09-23T05:28:04.472Z,81.5
2015-09-23T05:29:04.414Z,80.4
2015-09-23T05:30:04.369Z,80.2
2015-09-23T05:31:04.324Z,80.7
2015-09-23T05:32:04.281Z,79.9
2015-09-23T05:33:04.221Z,80.3
2015-09-23T05:34:04.177Z,80.4
2015-09-23T05:35:04.117Z,81.4
2015-09-23T05:36:04.073Z,81
2015-09-23T05:37:04.028Z,80.6
2015-09-23T05:38:03.969Z,81.3
2015-09-23T05:39:03.925Z,81.6
2015-09-23T05:40:03.866Z,81.9
2015-09-23T05:41:03.821Z,81.9
2015-09-23T05:42:03.777Z,81.8
2015-09-23T05:43:03.716Z,81.8
2015-09-23T05:44:03.672Z,82.1
2015-09-23T05:45:03.613Z,82.4
2015-09-23T05:46:03.568Z,82.5
2015-09-23T05:47:03.540Z,82.3
2015-09-23T05:48:03.465Z,82.3
2015-09-23T05:49:03.420Z,81.8
2015-09-23T05:50:03.377Z,82.1
2015-09-23T05:51:03.316Z,81.9
2015-09-23T05:52:03.507Z,82
2015-09-23T05:53:03.213Z,81.9
2015-09-23T05:54:03.168Z,81.6
2015-09-23T05:55:03.359Z,81.8
2015-09-23T05:56:03.080Z,81.4
2015-09-23T05:57:03.255Z,81.2
2015-09-23T05:58:02.977Z,81.1
2015-09-23T05:59:02.917Z,81.5
2015-09-23T06:00:02.857Z,81.6
2015-09-23T06:01:02.814Z,81.8
2015-09-23T06:02:02.770Z,82.2
2015-09-23T06:03:02.960Z,82.6
2015-09-23T06:04:02.682Z,83
2015-09-23T06:05:02.621Z,83.6
2015-09-23T06:06:02.577Z,83
2015-09-23T06:07:02.518Z,82.5
2015-09-23T06:08:02.474Z,82.5
2015-09-23T06:09:02.414Z,81.9
2015-09-23T06:10:02.369Z,82
2015-09-23T06:11:02.543Z,81.8
2015-09-23T06:12:02.266Z,81.5
2015-09-23T06:13:02.457Z,81.4
2015-09-23T06:14:02.177Z,81.7
2015-09-23T06:15:02.118Z,81.4
2015-09-23T06:16:02.074Z,81.2
2015-09-23T06:17:02.029Z,81
2015-09-23T06:18:01.970Z,80.7
2015-09-23T06:19:01.926Z,81
2015-09-23T06:20:01.865Z,80.9
2015-09-23T06:21:01.071Z,80.7
2015-09-23T06:22:01.777Z,80.5
2015-09-23T06:23:01.718Z,80.5
2015-09-23T06:24:01.673Z,81.1
2015-09-23T06:25:01.848Z,81.1
2015-09-23T06:26:01.584Z,81.3
2015-09-23T06:27:01.509Z,81.1
2015-09-23T06:28:01.481Z,81.1
2015-09-23T06:29:01.436Z,81.3
2015-09-23T06:30:01.378Z,81.1
2015-09-23T06:31:01.318Z,81.5
2015-09-23T06:32:01.273Z,81.8
2015-09-23T06:33:01.448Z,82
2015-09-23T06:34:01.169Z,81.9
2015-09-23T06:35:01.109Z,81.4
2015-09-23T06:36:01.081Z,82.1
2015-09-23T06:37:01.021Z,81.6
2015-09-23T06:38:00.977Z,81.7
2015-09-23T06:39:00.917Z,82.3
2015-09-23T06:40:00.873Z,82.1
2015-09-23T06:41:00.814Z,82.2
2015-09-23T06:42:00.786Z,81.8
2015-09-23T06:43:00.725Z,81.6
2015-09-23T06:44:00.666Z,81.9
2015-09-23T06:45:00.855Z,81.9
2015-09-23T06:46:00.577Z,81.4
2015-09-23T06:47:00.517Z,80.9
2015-09-23T06:48:00.472Z,81.4
2015-09-23T06:49:00.413Z,81.2
2015-09-23T06:50:00.210Z,81.2
2015-09-23T06:51:00.322Z,81.2
2015-09-23T06:52:00.497Z,81.5
2015-09-23T06:53:00.218Z,81.8
2015-09-23T06:54:00.174Z,81.1
2015-09-23T06:55:00.129Z,80.9
2015-09-23T06:56:00.071Z,80.4
2015-09-23T06:57:00.026Z,81.2
2015-09-23T06:57:59.965Z,81.7
2015-09-23T06:58:59.922Z,82.7
2015-09-23T06:59:59.862Z,82.7
2015-09-23T07:00:59.818Z,82.8
2015-09-23T07:01:59.758Z,82
2015-09-23T07:02:59.714Z,81.9
2015-09-23T07:03:59.670Z,82
2015-09-23T07:04:59.970Z,81
2015-09-23T07:05:59.582Z,80.4
2015-09-23T07:06:58.772Z,80.7
2015-09-23T07:07:59.478Z,80.8
2015-09-23T07:08:59.652Z,80.6
2015-09-23T07:09:59.373Z,80.7
2015-09-23T07:10:59.314Z,80.6
2015-09-23T07:11:59.270Z,80
2015-09-23T07:12:59.210Z,80.3
2015-09-23T07:13:59.165Z,80.4
2015-09-23T07:14:59.122Z,80.4
2015-09-23T07:15:59.062Z,80.7
2015-09-23T07:16:59.018Z,80
2015-09-23T07:17:59.209Z,79.9
2015-09-23T07:18:58.914Z,79.9
2015-09-23T07:19:58.870Z,80
2015-09-23T07:20:58.826Z,79.8
2015-09-23T07:21:59.000Z,79.7
2015-09-23T07:22:58.722Z,79.2
2015-09-23T07:23:58.662Z,79.4
2015-09-23T07:24:58.617Z,79.3
2015-09-23T07:25:58.573Z,79
2015-09-23T07:26:58.514Z,79.5
2015-09-23T07:27:58.470Z,79
2015-09-23T07:28:58.411Z,78.8
2015-09-23T07:29:58.367Z,78.4
2015-09-23T07:30:58.322Z,78.5
2015-09-23T07:31:58.262Z,77.3
2015-09-23T07:32:58.217Z,77.3
2015-09-23T07:33:58.174Z,77.3
2015-09-23T07:34:58.114Z,77.5
2015-09-23T07:35:58.070Z,78
2015-09-23T07:36:58.026Z,77.3
2015-09-23T07:37:57.967Z,77.2
2015-09-23T07:38:57.906Z,77.1
2015-09-23T07:39:57.861Z,76.7
2015-09-23T07:40:57.818Z,76.7
2015-09-23T07:41:57.758Z,77.2
2015-09-23T07:42:57.699Z,76.8
2015-09-23T07:43:57.654Z,76.6
2015-09-23T07:44:57.610Z,76.7
2015-09-23T07:45:57.550Z,77.2
2015-09-23T07:46:57.506Z,77.2
2015-09-23T07:47:57.446Z,77.1
2015-09-23T07:48:57.402Z,77.6
2015-09-23T07:49:57.343Z,78.4
2015-09-23T07:50:57.298Z,76.4
2015-09-23T07:51:57.251Z,77.5
2015-09-23T07:52:57.191Z,77.9
2015-09-23T07:53:57.147Z,78.8
2015-09-23T07:54:57.104Z,78.4
2015-09-23T07:55:57.052Z,77.5
2015-09-23T07:56:57.007Z,77.3
2015-09-23T07:57:56.947Z,77.2
2015-09-23T07:58:56.888Z,77.4
2015-09-23T07:59:56.843Z,77.4
2015-09-23T08:00:57.034Z,77.5
2015-09-23T08:01:56.755Z,77.2
2015-09-23T08:02:56.696Z,77.3
2015-09-23T08:03:56.652Z,76.9
2015-09-23T08:04:56.591Z,76.7
2015-09-23T08:05:56.548Z,76
2015-09-23T08:06:56.503Z,77
2015-09-23T08:07:56.443Z,76.3
2015-09-23T08:08:56.399Z,75.7
2015-09-23T08:09:56.355Z,75.3
2015-09-23T08:10:56.296Z,75.3
2015-09-23T08:11:56.251Z,75.4
2015-09-23T08:12:56.207Z,74.8
2015-09-23T08:13:56.148Z,75.5
2015-09-23T08:14:56.103Z,75.8
2015-09-23T08:15:56.043Z,75.4
2015-09-23T08:16:55.998Z,75.2
2015-09-23T08:17:55.939Z,75.1
2015-09-23T08:18:55.895Z,75.3
2015-09-23T08:19:55.851Z,75.3
2015-09-23T08:20:55.791Z,75.4
2015-09-23T08:21:55.763Z,74.9
2015-09-23T08:22:55.688Z,75.3
2015-09-23T08:23:55.643Z,74.6
2015-09-23T08:24:55.600Z,75.2
2015-09-23T08:25:55.606Z,75.5
2015-09-23T08:26:55.484Z,74.8
2015-09-23T08:27:55.440Z,75.3
2015-09-23T08:28:55.380Z,74.4
2015-09-23T08:29:55.351Z,74.2
2015-09-23T08:30:55.291Z,73.9
2015-09-23T08:31:55.247Z,74
2015-09-23T08:32:55.188Z,74.1
2015-09-23T08:33:55.141Z,74.2
2015-09-23T08:34:55.077Z,74.7
2015-09-23T08:35:55.028Z,75
2015-09-23T08:36:54.979Z,74.2
2015-09-23T08:37:54.930Z,74.3
2015-09-23T08:38:54.868Z,74
2015-09-23T08:39:54.822Z,74
2015-09-23T08:40:54.761Z,74.2
2015-09-23T08:41:54.715Z,74.6
2015-09-23T08:42:54.654Z,74.8
2015-09-23T08:43:54.592Z,75.1
2015-09-23T08:44:54.580Z,75
2015-09-23T08:45:54.504Z,74.4
2015-09-23T08:46:54.444Z,74.8
2015-09-23T08:47:54.399Z,74.6
2015-09-23T08:48:54.339Z,74.4
2015-09-23T08:49:54.544Z,74
2015-09-23T08:50:54.250Z,74.7
2015-09-23T08:51:54.189Z,74.3
2015-09-23T08:52:54.146Z,75
2015-09-23T08:53:54.101Z,75.1
2015-09-23T08:54:54.057Z,74.9
2015-09-23T08:55:53.997Z,75.1
2015-09-23T08:56:53.952Z,75.7
2015-09-23T08:57:53.908Z,75.5
2015-09-23T08:58:53.845Z,75.4
2015-09-23T08:59:53.801Z,75
2015-09-23T09:00:53.743Z,75.2
2015-09-23T09:01:53.698Z,75.3
2015-09-23T09:02:53.669Z,75.3
2015-09-23T09:03:53.609Z,75.6
2015-09-23T09:04:53.550Z,74
2015-09-23T09:05:53.506Z,73.6
2015-09-23T09:06:53.446Z,74.7
2015-09-23T09:07:53.401Z,75.1
2015-09-23T09:08:53.342Z,74.6
2015-09-23T09:09:53.298Z,75
2015-09-23T09:10:53.253Z,74
2015-09-23T09:11:53.194Z,73.8
2015-09-23T09:12:53.165Z,74
2015-09-23T09:13:53.089Z,74.5
2015-09-23T09:14:53.061Z,74.4
2015-09-23T09:15:53.001Z,75.4
2015-09-23T09:16:52.942Z,75.3
2015-09-23T09:17:52.913Z,75
2015-09-23T09:18:52.853Z,74.8
2015-09-23T09:19:52.809Z,75
2015-09-23T09:20:52.750Z,74
2015-09-23T09:21:52.705Z,74.4
2015-09-23T09:22:52.895Z,75
2015-09-23T09:23:52.602Z,74.3
2015-09-23T09:24:52.558Z,73.9
2015-09-23T09:25:52.497Z,74
2015-09-23T09:26:52.469Z,73.7
2015-09-23T09:27:52.394Z,73.8
2015-09-23T09:28:52.350Z,73.8
2015-09-23T09:29:51.555Z,74.3
2015-09-23T09:30:52.496Z,73.9
2015-09-23T09:31:52.216Z,73.8
2015-09-23T09:32:52.157Z,73.9
2015-09-23T09:33:52.129Z,74
2015-09-23T09:34:52.052Z,74.2
2015-09-23T09:35:52.009Z,73.8
2015-09-23T09:36:51.949Z,74.1
2015-09-23T09:37:51.905Z,73.4
2015-09-23T09:38:51.860Z,73.7
2015-09-23T09:39:51.802Z,73.4
2015-09-23T09:40:51.757Z,73.9
2015-09-23T09:41:51.713Z,74.5
2015-09-23T09:42:51.668Z,74.5
2015-09-23T09:43:51.609Z,73.5
2015-09-23T09:44:51.565Z,74.7
2015-09-23T09:45:51.505Z,73.2
2015-09-23T09:46:51.476Z,73.9
2015-09-23T09:47:51.401Z,73.6
2015-09-23T09:48:51.357Z,73.2
2015-09-23T09:49:51.312Z,73.6
2015-09-23T09:50:51.269Z,73.6
2015-09-23T09:51:51.209Z,73.9
2015-09-23T09:52:51.165Z,73.8
2015-09-23T09:53:51.340Z,73.4
2015-09-23T09:54:51.062Z,73.1
2015-09-23T09:55:51.001Z,73.9
2015-09-23T09:56:50.973Z,74
2015-09-23T09:57:50.912Z,74.1
2015-09-23T09:58:50.853Z,73.5
2015-09-23T09:59:50.809Z,73
2015-09-23T10:00:50.764Z,72.9
2015-09-23T10:01:50.720Z,73.6
2015-09-23T10:02:50.661Z,73.8
2015-09-23T10:03:50.617Z,73.2
2015-09-23T10:04:50.573Z,72.5
2015-09-23T10:05:50.512Z,73.2
2015-09-23T10:06:50.469Z,73.1
2015-09-23T10:07:50.425Z,73.2
2015-09-23T10:08:50.364Z,72
2015-09-23T10:09:50.336Z,73.1
2015-09-23T10:10:50.261Z,73
2015-09-23T10:11:50.217Z,72.7
2015-09-23T10:12:50.170Z,73.1
2015-09-23T10:13:50.110Z,72.2
2015-09-23T10:14:50.066Z,72.4
2015-09-23T10:15:50.006Z,72.7
2015-09-23T10:16:49.961Z,72.7
2015-09-23T10:17:49.917Z,70.8
2015-09-23T10:18:50.108Z,71.8
2015-09-23T10:19:49.814Z,72.2
2015-09-23T10:20:49.755Z,71.2
2015-09-23T10:21:49.710Z,72.2
2015-09-23T10:22:49.666Z,72.5
2015-09-23T10:23:49.855Z,72.6
2015-09-23T10:24:49.562Z,71.9
2015-09-23T10:25:49.533Z,71.6
2015-09-23T10:26:49.474Z,71
2015-09-23T10:27:49.430Z,70.5
2015-09-23T10:28:49.385Z,71.1
2015-09-23T10:29:49.341Z,71.3
2015-09-23T10:30:49.266Z,70.6
2015-09-23T10:31:49.221Z,69.7
2015-09-23T10:32:49.178Z,69.3
2015-09-23T10:33:49.118Z,70.7
2015-09-23T10:34:49.073Z,69.5
2015-09-23T10:35:49.014Z,70
2015-09-23T10:36:48.985Z,70.1
2015-09-23T10:37:48.926Z,70.4
2015-09-23T10:38:48.881Z,71.2
2015-09-23T10:39:48.821Z,69.5
2015-09-23T10:40:48.778Z,69.4
2015-09-23T10:41:48.718Z,69
2015-09-23T10:42:48.908Z,69.1
2015-09-23T10:43:48.613Z,69.2
2015-09-23T10:44:48.570Z,69.8
2015-09-23T10:45:48.509Z,70.7
2015-09-23T10:46:48.482Z,69.7
2015-09-23T10:47:48.421Z,69.4
2015-09-23T10:48:48.362Z,68.7
2015-09-23T10:49:48.318Z,68.9
2015-09-23T10:50:48.273Z,68.4
2015-09-23T10:51:48.214Z,68
2015-09-23T10:52:48.170Z,67.5
2015-09-23T10:53:48.125Z,67.8
2015-09-23T10:54:48.066Z,67.7
2015-09-23T10:55:48.021Z,68.6
2015-09-23T10:56:47.978Z,67.7
2015-09-23T10:57:47.933Z,68.5
2015-09-23T10:58:47.873Z,68.3
2015-09-23T10:59:48.048Z,67.9
2015-09-23T11:00:47.770Z,68
2015-09-23T11:01:47.756Z,68.3
2015-09-23T11:02:47.681Z,67
2015-09-23T11:03:47.622Z,68.4
2015-09-23T11:04:47.639Z,67.4
2015-09-23T11:05:47.533Z,66.7
2015-09-23T11:06:47.473Z,67.3
2015-09-23T11:07:47.428Z,66.7
2015-09-23T11:08:47.370Z,66.1
2015-09-23T11:09:47.169Z,67.3
2015-09-23T11:10:47.281Z,66.5
2015-09-23T11:11:47.237Z,65.8
2015-09-23T11:12:47.178Z,67
2015-09-23T11:13:47.134Z,65.8
2015-09-23T11:14:47.072Z,66.1
2015-09-23T11:15:47.029Z,66.7
2015-09-23T11:16:46.982Z,67.2
2015-09-23T11:17:46.938Z,66.4
2015-09-23T11:18:46.878Z,64.9
2015-09-23T11:19:46.833Z,66.8
2015-09-23T11:20:46.774Z,66.2
2015-09-23T11:21:46.730Z,66.5
2015-09-23T11:22:46.671Z,67
2015-09-23T11:23:46.642Z,67.8
2015-09-23T11:24:46.582Z,67.7
2015-09-23T11:25:46.538Z,67.7
2015-09-23T11:26:46.478Z,66
2015-09-23T11:27:46.435Z,65.6
2015-09-23T11:28:46.608Z,66.8
2015-09-23T11:29:46.329Z,67.2
2015-09-23T11:30:46.285Z,66.9
2015-09-23T11:31:46.226Z,65.6
2015-09-23T11:32:46.182Z,66.7
2015-09-23T11:33:46.122Z,65.8
2015-09-23T11:34:46.093Z,65.5
2015-09-23T11:35:46.034Z,65.2
2015-09-23T11:36:45.990Z,66.1
2015-09-23T11:37:45.930Z,65.8
2015-09-23T11:38:45.885Z,64.2
2015-09-23T11:39:46.060Z,65.1
2015-09-23T11:40:46.015Z,65.7
2015-09-23T11:41:45.722Z,65
2015-09-23T11:42:45.678Z,64.9
2015-09-23T11:43:45.868Z,65.7
2015-09-23T11:44:45.573Z,64.1
2015-09-23T11:45:45.529Z,64
2015-09-23T11:46:45.470Z,62.5
2015-09-23T11:47:45.425Z,62.2
2015-09-23T11:48:45.382Z,62.4
2015-09-23T11:49:45.447Z,59.8
2015-09-23T11:50:45.293Z,61.2
2015-09-23T11:51:45.233Z,61.5
2015-09-23T11:52:45.174Z,61.6
2015-09-23T11:53:45.130Z,60.8
2015-09-23T11:54:45.070Z,61.6
2015-09-23T11:55:45.027Z,61.6
2015-09-23T11:56:44.982Z,61.2
2015-09-23T11:57:45.157Z,61.5
2015-09-23T11:58:44.879Z,61.5
2015-09-23T11:59:44.819Z,61.6
2015-09-23T12:00:44.775Z,61.3
2015-09-23T12:01:44.731Z,60.5
2015-09-23T12:02:44.687Z,60.5
2015-09-23T12:03:44.626Z,59
2015-09-23T12:04:44.582Z,59.7
2015-09-23T12:05:44.523Z,60.3
2015-09-23T12:06:44.478Z,60.8
2015-09-23T12:07:44.419Z,61.8
2015-09-23T12:08:44.390Z,61.9
2015-09-23T12:09:44.331Z,61.4
2015-09-23T12:10:44.286Z,61.8
2015-09-23T12:11:44.242Z,59.5
2015-09-23T12:12:44.183Z,60.1
2015-09-23T12:13:44.138Z,60.1
2015-09-23T12:14:44.078Z,60.3
2015-09-23T12:15:44.035Z,60.7
2015-09-23T12:16:44.006Z,60.6
2015-09-23T12:17:43.931Z,59.2
2015-09-23T12:18:43.887Z,59.3
2015-09-23T12:19:43.842Z,59.6
2015-09-23T12:20:43.798Z,59.4
2015-09-23T12:21:43.739Z,60.8
2015-09-23T12:22:43.694Z,58.2
2015-09-23T12:23:43.634Z,58.2
2015-09-23T12:24:43.591Z,58
2015-09-23T12:25:43.546Z,59.7
2015-09-23T12:26:43.486Z,60.8
2015-09-23T12:27:43.442Z,60.9
2015-09-23T12:28:43.398Z,60.1
2015-09-23T12:29:43.354Z,60.4
2015-09-23T12:30:43.310Z,60.4
2015-09-23T12:31:43.250Z,59.8
2015-09-23T12:32:43.203Z,59.8
2015-09-23T12:33:43.158Z,60.4
2015-09-23T12:34:43.099Z,61.1
2015-09-23T12:35:43.054Z,61.1
2015-09-23T12:36:42.996Z,60.5
2015-09-23T12:37:42.952Z,61.2
2015-09-23T12:38:42.891Z,61.6
2015-09-23T12:39:42.863Z,61.4
2015-09-23T12:40:42.865Z,62
2015-09-23T12:41:42.993Z,62.2
2015-09-23T12:42:42.699Z,61.3
2015-09-23T12:43:42.889Z,60.6
2015-09-23T12:44:42.610Z,60.2
2015-09-23T12:45:41.816Z,60.9
2015-09-23T12:46:42.507Z,61.4
2015-09-23T12:47:42.462Z,61.2
2015-09-23T12:48:42.637Z,61.4
2015-09-23T12:49:42.359Z,61.7
2015-09-23T12:50:42.315Z,59.8
2015-09-23T12:51:42.255Z,59.3
2015-09-23T12:52:42.289Z,60.1
2015-09-23T12:53:42.167Z,60.4
2015-09-23T12:54:42.122Z,60.6
2015-09-23T12:55:42.078Z,60.9
2015-09-23T12:56:42.034Z,61
2015-09-23T12:57:41.990Z,62.1
2015-09-23T12:58:41.914Z,61.4
2015-09-23T12:59:41.870Z,61.2
2015-09-23T13:00:41.825Z,61.6
2015-09-23T13:01:41.767Z,61.6
2015-09-23T13:02:41.722Z,61.4
2015-09-23T13:03:41.678Z,62.3
2015-09-23T13:04:41.618Z,63.2
2015-09-23T13:05:41.575Z,63.3
2015-09-23T13:06:41.531Z,62.3
2015-09-23T13:07:41.479Z,63.6
2015-09-23T13:08:41.426Z,63.8
2015-09-23T13:09:41.359Z,63.5
2015-09-23T13:10:41.307Z,63.8
2015-09-23T13:11:41.239Z,64
2015-09-23T13:12:41.192Z,64.2
2015-09-23T13:13:41.380Z,63
2015-09-23T13:14:41.083Z,63
2015-09-23T13:15:41.053Z,63.4
2015-09-23T13:16:40.989Z,64.2
2015-09-23T13:17:40.929Z,63.7
2015-09-23T13:18:40.883Z,63.5
2015-09-23T13:19:40.839Z,64.2
2015-09-23T13:20:40.793Z,63.4
2015-09-23T13:21:40.747Z,63.9
2015-09-23T13:22:40.688Z,63.9
2015-09-23T13:23:40.643Z,64
2015-09-23T13:24:40.583Z,64.2
2015-09-23T13:25:40.554Z,63.8